Time;durP1;ratioP1;P1;durP2;ratioP2;P2;SDS_P1;SDS_P2;PMS_P1;PMS_P2;Temp;Humidity;BMP_temperature;BMP_pressure;BME280_temperature;BME280_humidity;BME280_pressure;Samples;Min_cycle;Max_cycle;Signal;HPM_P1;HPM_P2
2023/12/25 00:01:11;;;;;;;7.67;1.50;;;;;;;;;;5025031;28;20573;-61
2023/12/25 00:03:36;;;;;;;6.00;1.50;;;;;;;;;;5023906;28;20020;-61
2023/12/25 00:06:01;;;;;;;11.20;2.13;;;;;;;;;;5023680;28;20108;-62
2023/12/25 00:08:26;;;;;;;4.90;1.43;;;;;;;;;;5024333;28;20025;-62
2023/12/25 00:10:52;;;;;;;3.33;1.00;;;;;;;;;;5028118;28;20021;-63
2023/12/25 00:13:17;;;;;;;4.53;1.33;;;;;;;;;;5019933;28;20033;-62
2023/12/25 00:15:42;;;;;;;4.60;1.47;;;;;;;;;;5019861;28;20117;-63
2023/12/25 00:18:07;;;;;;;9.03;2.00;;;;;;;;;;5020222;28;20471;-62
2023/12/25 00:20:33;;;;;;;7.17;1.50;;;;;;;;;;5024270;28;20060;-62
2023/12/25 00:22:58;;;;;;;8.93;1.50;;;;;;;;;;5024818;28;20470;-62
2023/12/25 00:25:24;;;;;;;4.97;1.30;;;;;;;;;;5021836;28;20050;-62
2023/12/25 00:27:49;;;;;;;6.83;1.47;;;;;;;;;;5020637;28;20037;-62
2023/12/25 00:30:15;;;;;;;4.53;1.13;;;;;;;;;;5018821;28;20030;-63
2023/12/25 00:32:40;;;;;;;4.07;1.10;;;;;;;;;;5021141;28;20425;-62
2023/12/25 00:35:05;;;;;;;4.60;1.27;;;;;;;;;;5017806;28;20022;-62
2023/12/25 00:37:30;;;;;;;6.77;1.30;;;;;;;;;;5019120;28;20025;-63
2023/12/25 00:39:56;;;;;;;5.83;1.30;;;;;;;;;;5020811;28;20108;-62
2023/12/25 00:42:21;;;;;;;7.27;1.40;;;;;;;;;;5029414;28;20037;-62
2023/12/25 00:44:46;;;;;;;8.63;1.40;;;;;;;;;;5019630;28;20034;-63
2023/12/25 00:47:12;;;;;;;4.40;1.13;;;;;;;;;;5021238;28;20034;-63
2023/12/25 00:49:37;;;;;;;6.10;1.13;;;;;;;;;;5020127;28;20533;-63
2023/12/25 00:52:03;;;;;;;7.47;1.77;;;;;;;;;;5025986;28;20104;-62
2023/12/25 00:54:31;;;;;;;9.93;1.80;;;;;;;;;;5023228;28;20369;-62
2023/12/25 00:56:56;;;;;;;11.23;1.47;;;;;;;;;;5022118;28;20029;-62
2023/12/25 00:59:21;;;;;;;2.53;0.93;;;;;;;;;;5018973;28;20021;-63
2023/12/25 01:01:47;;;;;;;6.57;1.67;;;;;;;;;;5025599;28;20557;-63
2023/12/25 01:04:12;;;;;;;4.20;1.43;;;;;;;;;;5024178;28;20083;-62
2023/12/25 01:06:37;;;;;;;7.30;1.53;;;;;;;;;;5024206;28;20033;-62
2023/12/25 01:09:02;;;;;;;7.73;1.83;;;;;;;;;;5027353;28;20540;-63
2023/12/25 01:11:28;;;;;;;5.33;1.13;;;;;;;;;;5026765;28;20097;-63
2023/12/25 01:13:53;;;;;;;4.13;1.37;;;;;;;;;;5024075;28;20079;-62
2023/12/25 01:16:18;;;;;;;6.23;1.50;;;;;;;;;;5024619;28;20100;-62
2023/12/25 01:18:43;;;;;;;6.50;1.30;;;;;;;;;;5025191;28;20075;-62
2023/12/25 01:21:09;;;;;;;6.07;1.40;;;;;;;;;;5023146;28;20029;-63
2023/12/25 01:23:34;;;;;;;3.87;1.20;;;;;;;;;;5019498;28;20478;-62
2023/12/25 01:25:59;;;;;;;3.87;1.23;;;;;;;;;;5021875;28;20081;-64
2023/12/25 01:28:25;;;;;;;5.00;1.10;;;;;;;;;;5025459;28;20573;-63
2023/12/25 01:30:50;;;;;;;7.00;1.60;;;;;;;;;;5023458;28;20356;-63
2023/12/25 01:33:15;;;;;;;5.30;1.60;;;;;;;;;;5015360;28;20478;-63
2023/12/25 01:35:40;;;;;;;6.40;1.23;;;;;;;;;;5020101;28;20068;-63
2023/12/25 01:38:06;;;;;;;5.47;1.83;;;;;;;;;;5015408;28;20029;-63
2023/12/25 01:40:31;;;;;;;4.60;1.30;;;;;;;;;;5024165;28;20025;-63
2023/12/25 01:42:56;;;;;;;5.17;1.50;;;;;;;;;;5017799;28;20372;-63
2023/12/25 01:45:21;;;;;;;4.43;1.40;;;;;;;;;;5013363;28;20049;-63
2023/12/25 01:47:47;;;;;;;6.30;1.47;;;;;;;;;;5016678;28;20034;-62
2023/12/25 01:50:13;;;;;;;8.53;1.80;;;;;;;;;;5023192;28;20033;-63
2023/12/25 01:52:38;;;;;;;8.03;1.80;;;;;;;;;;5014814;28;20535;-63
2023/12/25 01:55:04;;;;;;;5.77;1.40;;;;;;;;;;5017242;28;20030;-62
2023/12/25 01:57:32;;;;;;;8.70;1.73;;;;;;;;;;5018061;28;20035;-63
2023/12/25 01:59:57;;;;;;;8.90;1.67;;;;;;;;;;5021027;28;20033;-62
2023/12/25 02:02:23;;;;;;;2.27;0.90;;;;;;;;;;5023913;28;20377;-62
2023/12/25 02:04:48;;;;;;;4.57;1.07;;;;;;;;;;5018929;28;20025;-62
2023/12/25 02:07:14;;;;;;;3.53;1.30;;;;;;;;;;5019973;28;20516;-62
2023/12/25 02:09:40;;;;;;;4.03;1.03;;;;;;;;;;5022251;28;20025;-62
2023/12/25 02:12:05;;;;;;;4.93;1.20;;;;;;;;;;5028247;28;20025;-62
2023/12/25 02:14:30;;;;;;;3.30;1.20;;;;;;;;;;5028298;28;20022;-62
2023/12/25 02:16:56;;;;;;;6.20;1.40;;;;;;;;;;5028202;28;20458;-63
2023/12/25 02:19:32;;;;;;;8.23;1.30;;;;;;;;;;5031291;28;20036;-62
2023/12/25 02:21:58;;;;;;;8.10;1.20;;;;;;;;;;5028334;28;20410;-62
2023/12/25 02:24:27;;;;;;;7.20;1.60;;;;;;;;;;5028790;28;20025;-62
2023/12/25 02:26:52;;;;;;;5.20;1.43;;;;;;;;;;5030270;28;20029;-62
2023/12/25 02:29:17;;;;;;;6.07;1.10;;;;;;;;;;5028022;28;20505;-63
2023/12/25 02:31:46;;;;;;;6.00;1.10;;;;;;;;;;5027225;28;20421;-62
2023/12/25 02:34:11;;;;;;;4.33;1.20;;;;;;;;;;5024381;28;20865;-62
2023/12/25 02:36:36;;;;;;;5.03;1.10;;;;;;;;;;5029386;28;20061;-62
2023/12/25 02:39:02;;;;;;;6.80;1.40;;;;;;;;;;5036266;28;20025;-62
2023/12/25 02:41:27;;;;;;;5.57;1.10;;;;;;;;;;5025679;28;20121;-63
2023/12/25 02:43:53;;;;;;;2.93;0.90;;;;;;;;;;5021818;28;20026;-61
2023/12/25 02:46:18;;;;;;;6.13;1.40;;;;;;;;;;5021444;28;20025;-62
2023/12/25 02:48:43;;;;;;;4.07;0.90;;;;;;;;;;5027577;28;20028;-62
2023/12/25 02:51:08;;;;;;;2.27;0.77;;;;;;;;;;5024586;28;20021;-62
2023/12/25 02:53:33;;;;;;;2.70;0.90;;;;;;;;;;5027508;28;20097;-62
2023/12/25 02:55:59;;;;;;;4.87;1.20;;;;;;;;;;5021241;28;20076;-62
2023/12/25 02:58:24;;;;;;;5.97;1.23;;;;;;;;;;5025596;28;20030;-62
2023/12/25 03:00:50;;;;;;;5.77;1.10;;;;;;;;;;5031256;28;20489;-62
2023/12/25 03:03:15;;;;;;;3.93;1.00;;;;;;;;;;5030091;28;20030;-62
2023/12/25 03:05:41;;;;;;;6.27;1.30;;;;;;;;;;5021557;28;20037;-62
2023/12/25 03:08:06;;;;;;;4.57;1.07;;;;;;;;;;5029686;28;20044;-62
2023/12/25 03:10:31;;;;;;;3.23;0.80;;;;;;;;;;5030102;28;20113;-62
2023/12/25 03:12:57;;;;;;;5.10;1.00;;;;;;;;;;5026444;28;20022;-62
2023/12/25 03:15:22;;;;;;;3.97;1.10;;;;;;;;;;5023912;28;20026;-63
2023/12/25 03:17:47;;;;;;;5.43;1.00;;;;;;;;;;5028232;28;20453;-63
2023/12/25 03:20:13;;;;;;;7.17;1.20;;;;;;;;;;5030866;28;20033;-62
2023/12/25 03:22:38;;;;;;;3.87;1.10;;;;;;;;;;5033369;28;20104;-62
2023/12/25 03:25:03;;;;;;;6.20;1.10;;;;;;;;;;5022718;28;20108;-63
2023/12/25 03:27:29;;;;;;;4.97;1.50;;;;;;;;;;5024841;28;20160;-62
2023/12/25 03:29:54;;;;;;;4.33;1.07;;;;;;;;;;5025870;28;20647;-63
2023/12/25 03:32:19;;;;;;;6.80;1.40;;;;;;;;;;5025545;28;20021;-63
2023/12/25 03:34:48;;;;;;;5.00;1.00;;;;;;;;;;5025363;28;20057;-63
2023/12/25 03:37:13;;;;;;;3.83;1.37;;;;;;;;;;5027134;28;20021;-63
2023/12/25 03:39:39;;;;;;;3.40;1.20;;;;;;;;;;5025450;28;20032;-63
2023/12/25 03:42:04;;;;;;;7.13;0.90;;;;;;;;;;5022770;28;20092;-63
2023/12/25 03:44:29;;;;;;;6.07;1.30;;;;;;;;;;5025925;28;20426;-63
2023/12/25 03:46:54;;;;;;;3.20;0.80;;;;;;;;;;5028879;28;20083;-63
2023/12/25 03:49:20;;;;;;;9.53;1.13;;;;;;;;;;5018757;28;20027;-62
2023/12/25 03:51:45;;;;;;;6.43;1.40;;;;;;;;;;5021088;28;20029;-62
2023/12/25 03:54:10;;;;;;;5.37;0.90;;;;;;;;;;5022323;28;20017;-63
2023/12/25 03:56:35;;;;;;;5.87;1.00;;;;;;;;;;5013496;28;20567;-63
2023/12/25 03:59:02;;;;;;;6.63;1.23;;;;;;;;;;5022006;28;20025;-63
2023/12/25 04:01:28;;;;;;;2.97;0.70;;;;;;;;;;5018294;28;20026;-63
2023/12/25 04:03:53;;;;;;;7.23;1.10;;;;;;;;;;5021552;28;20033;-62
2023/12/25 04:06:22;;;;;;;9.13;1.30;;;;;;;;;;5017778;28;20079;-63
2023/12/25 04:08:48;;;;;;;6.27;1.20;;;;;;;;;;5022303;28;20025;-63
2023/12/25 04:11:23;;;;;;;6.00;1.20;;;;;;;;;;5021623;28;20517;-62
2023/12/25 04:13:48;;;;;;;4.67;1.00;;;;;;;;;;5021444;28;20382;-63
2023/12/25 04:16:20;;;;;;;4.23;1.00;;;;;;;;;;5019756;28;20029;-63
2023/12/25 04:18:46;;;;;;;3.60;1.20;;;;;;;;;;5028551;28;20107;-63
2023/12/25 04:21:32;;;;;;;6.77;1.07;;;;;;;;;;5022972;28;20064;-63
2023/12/25 04:23:58;;;;;;;7.37;1.43;;;;;;;;;;5019913;28;20038;-62
2023/12/25 04:26:24;;;;;;;4.37;1.23;;;;;;;;;;5023120;28;20624;-62
2023/12/25 04:28:49;;;;;;;5.67;1.00;;;;;;;;;;5026121;28;20382;-62
2023/12/25 04:31:15;;;;;;;3.20;0.90;;;;;;;;;;5026030;28;20030;-63
2023/12/25 04:33:40;;;;;;;4.50;0.80;;;;;;;;;;5021039;28;20030;-62
2023/12/25 04:36:06;;;;;;;2.03;0.70;;;;;;;;;;5023795;28;20104;-61
2023/12/25 04:38:31;;;;;;;7.50;1.00;;;;;;;;;;5026422;28;20386;-63
2023/12/25 04:40:57;;;;;;;9.37;1.20;;;;;;;;;;5019035;28;20037;-66
2023/12/25 04:43:22;;;;;;;3.33;0.93;;;;;;;;;;5026670;28;20450;-62
2023/12/25 04:45:48;;;;;;;4.77;0.83;;;;;;;;;;5024998;28;20059;-61
2023/12/25 04:48:13;;;;;;;4.93;1.20;;;;;;;;;;5023934;28;20021;-63
2023/12/25 04:50:39;;;;;;;3.63;0.83;;;;;;;;;;5019681;28;20140;-62
2023/12/25 04:53:04;;;;;;;5.03;1.17;;;;;;;;;;5022984;28;20355;-62
2023/12/25 04:55:29;;;;;;;7.03;1.00;;;;;;;;;;5024856;28;20072;-62
2023/12/25 04:57:55;;;;;;;7.23;1.30;;;;;;;;;;5019779;28;20049;-63
2023/12/25 05:00:20;;;;;;;4.73;1.03;;;;;;;;;;5017600;28;20034;-63
2023/12/25 05:02:45;;;;;;;4.23;1.00;;;;;;;;;;5015619;28;20029;-63
2023/12/25 05:05:11;;;;;;;5.53;0.87;;;;;;;;;;5027370;28;20029;-63
2023/12/25 05:07:36;;;;;;;4.93;0.87;;;;;;;;;;5027361;28;20030;-63
2023/12/25 05:10:01;;;;;;;5.20;1.10;;;;;;;;;;5017996;28;20040;-61
2023/12/25 05:12:26;;;;;;;6.00;1.30;;;;;;;;;;5020120;28;20014;-62
2023/12/25 05:14:52;;;;;;;10.27;1.23;;;;;;;;;;5023154;28;20097;-62
2023/12/25 05:17:17;;;;;;;4.07;1.00;;;;;;;;;;5014476;28;20093;-60
2023/12/25 05:19:43;;;;;;;3.93;0.83;;;;;;;;;;5020074;28;20021;-62
2023/12/25 05:22:08;;;;;;;3.90;1.23;;;;;;;;;;5018981;28;20028;-62
2023/12/25 05:24:33;;;;;;;5.23;1.33;;;;;;;;;;5016208;28;20050;-63
2023/12/25 05:26:59;;;;;;;2.77;1.00;;;;;;;;;;5026026;28;20029;-62
2023/12/25 05:29:24;;;;;;;6.07;1.30;;;;;;;;;;5019626;28;20041;-63
2023/12/25 05:31:49;;;;;;;7.73;1.20;;;;;;;;;;5018320;28;20025;-64
2023/12/25 05:34:14;;;;;;;7.17;1.47;;;;;;;;;;5019297;28;20025;-63
2023/12/25 05:36:40;;;;;;;5.87;1.00;;;;;;;;;;5023244;28;20054;-62
2023/12/25 05:39:06;;;;;;;5.10;1.00;;;;;;;;;;5024947;28;20096;-66
2023/12/25 05:41:31;;;;;;;6.97;1.30;;;;;;;;;;5020618;28;20120;-65
2023/12/25 05:43:57;;;;;;;4.50;1.03;;;;;;;;;;5020655;28;20018;-62
2023/12/25 05:46:22;;;;;;;4.57;1.00;;;;;;;;;;5023486;28;20030;-63
2023/12/25 05:48:47;;;;;;;6.43;1.30;;;;;;;;;;5022706;28;20038;-62
2023/12/25 05:51:12;;;;;;;0.50;0.50;;;;;;;;;;5023091;28;20022;-62
2023/12/25 05:53:38;;;;;;;0.30;0.30;;;;;;;;;;5022433;28;20029;-63
2023/12/25 05:56:03;;;;;;;2.43;1.03;;;;;;;;;;5022140;28;20026;-63
2023/12/25 05:58:29;;;;;;;1.60;1.03;;;;;;;;;;5020293;28;20411;-62
2023/12/25 06:00:54;;;;;;;0.20;0.20;;;;;;;;;;5018144;28;20367;-62
2023/12/25 06:03:19;;;;;;;0.10;0.10;;;;;;;;;;5026092;28;20398;-62
2023/12/25 06:05:45;;;;;;;0.20;0.20;;;;;;;;;;5022768;28;20037;-62
2023/12/25 06:08:10;;;;;;;0.47;0.27;;;;;;;;;;5011740;28;20022;-63
2023/12/25 06:10:35;;;;;;;1.37;0.63;;;;;;;;;;5016530;28;20095;-63
2023/12/25 06:13:00;;;;;;;0.10;0.10;;;;;;;;;;5021384;28;20022;-63
2023/12/25 06:15:26;;;;;;;0.10;0.10;;;;;;;;;;5021232;28;20057;-63
2023/12/25 06:17:51;;;;;;;0.20;0.20;;;;;;;;;;5021094;28;20051;-63
2023/12/25 06:20:17;;;;;;;0.43;0.43;;;;;;;;;;5014575;28;20402;-63
2023/12/25 06:22:42;;;;;;;0.17;0.17;;;;;;;;;;5012802;28;20044;-62
2023/12/25 06:25:07;;;;;;;0.20;0.20;;;;;;;;;;5020261;28;20062;-63
2023/12/25 06:27:32;;;;;;;2.60;1.07;;;;;;;;;;5021474;28;20029;-63
2023/12/25 06:29:58;;;;;;;0.10;0.10;;;;;;;;;;5013964;28;20026;-63
2023/12/25 06:32:23;;;;;;;0.20;0.20;;;;;;;;;;5014382;28;20459;-63
2023/12/25 06:34:48;;;;;;;0.10;0.10;;;;;;;;;;5024409;28;20048;-63
2023/12/25 06:37:14;;;;;;;0.20;0.20;;;;;;;;;;5021878;28;20112;-63
2023/12/25 06:39:39;;;;;;;3.10;0.80;;;;;;;;;;5018922;28;20025;-63
2023/12/25 06:42:04;;;;;;;22.23;0.57;;;;;;;;;;5016754;28;20405;-62
2023/12/25 06:44:29;;;;;;;0.10;0.10;;;;;;;;;;5024215;28;20048;-62
2023/12/25 06:46:55;;;;;;;11.40;0.90;;;;;;;;;;5026915;28;20150;-63
2023/12/25 06:49:20;;;;;;;3.60;1.40;;;;;;;;;;5022059;28;20030;-63
2023/12/25 06:51:45;;;;;;;0.40;0.33;;;;;;;;;;5021001;28;20022;-63
2023/12/25 06:54:12;;;;;;;0.10;0.10;;;;;;;;;;5020111;28;20084;-62
2023/12/25 06:56:37;;;;;;;0.20;0.20;;;;;;;;;;5023665;28;20439;-62
2023/12/25 06:59:02;;;;;;;0.33;0.33;;;;;;;;;;5026620;28;20025;-62
2023/12/25 07:01:27;;;;;;;0.10;0.10;;;;;;;;;;5031230;28;20021;-63
2023/12/25 07:03:53;;;;;;;0.10;0.10;;;;;;;;;;5027735;28;20033;-63
2023/12/25 07:06:18;;;;;;;25.13;1.63;;;;;;;;;;5022783;28;20603;-62
2023/12/25 07:08:43;;;;;;;0.10;0.10;;;;;;;;;;5026397;28;20180;-62
2023/12/25 07:11:09;;;;;;;0.13;0.13;;;;;;;;;;5029686;28;20022;-62
2023/12/25 07:13:36;;;;;;;10.07;0.83;;;;;;;;;;5027094;28;20025;-62
2023/12/25 07:16:01;;;;;;;0.10;0.10;;;;;;;;;;5021098;28;20101;-63
2023/12/25 07:18:27;;;;;;;0.10;0.10;;;;;;;;;;5023298;28;20101;-63
2023/12/25 07:20:52;;;;;;;0.57;0.57;;;;;;;;;;5029953;28;20227;-62
2023/12/25 07:23:18;;;;;;;0.10;0.10;;;;;;;;;;5025416;28;20463;-62
2023/12/25 07:25:44;;;;;;;0.30;0.20;;;;;;;;;;5025238;28;20136;-62
2023/12/25 07:28:09;;;;;;;0.20;0.20;;;;;;;;;;5021082;28;20187;-62
2023/12/25 07:30:35;;;;;;;0.20;0.20;;;;;;;;;;5020137;28;20430;-62
2023/12/25 07:33:00;;;;;;;0.20;0.20;;;;;;;;;;5018756;28;20018;-62
2023/12/25 07:35:26;;;;;;;0.10;0.10;;;;;;;;;;5022738;28;20024;-62
2023/12/25 07:37:51;;;;;;;0.20;0.20;;;;;;;;;;5019244;28;20103;-62
2023/12/25 07:40:17;;;;;;;0.10;0.10;;;;;;;;;;5020725;28;20041;-63
2023/12/25 07:42:43;;;;;;;5.13;1.10;;;;;;;;;;5020018;28;20097;-63
2023/12/25 07:45:11;;;;;;;6.87;1.00;;;;;;;;;;5023095;28;20466;-62
2023/12/25 07:47:36;;;;;;;6.97;1.17;;;;;;;;;;5022867;28;20021;-62
2023/12/25 07:50:03;;;;;;;6.27;1.47;;;;;;;;;;5021154;28;20547;-62
2023/12/25 07:52:28;;;;;;;3.50;0.97;;;;;;;;;;5024630;28;20453;-62
2023/12/25 07:54:55;;;;;;;5.43;0.93;;;;;;;;;;5026669;28;20140;-62
2023/12/25 07:57:21;;;;;;;6.73;1.20;;;;;;;;;;5023857;28;20377;-62
2023/12/25 07:59:47;;;;;;;7.93;1.80;;;;;;;;;;5022920;28;20021;-62
2023/12/25 08:02:13;;;;;;;5.37;1.20;;;;;;;;;;5023820;28;20037;-62
2023/12/25 08:04:38;;;;;;;4.40;1.30;;;;;;;;;;5025438;28;20059;-62
2023/12/25 08:07:03;;;;;;;9.80;1.27;;;;;;;;;;5025088;28;20084;-62
2023/12/25 08:09:28;;;;;;;5.43;1.20;;;;;;;;;;5023645;28;20018;-62
2023/12/25 08:11:54;;;;;;;9.87;1.30;;;;;;;;;;5024423;28;20031;-63
2023/12/25 08:14:19;;;;;;;8.27;1.43;;;;;;;;;;5023454;28;20026;-61
2023/12/25 08:16:44;;;;;;;10.03;1.53;;;;;;;;;;5023356;28;20106;-62
2023/12/25 08:19:10;;;;;;;7.33;1.37;;;;;;;;;;5024779;28;20029;-62
2023/12/25 08:21:35;;;;;;;5.23;1.10;;;;;;;;;;5026254;28;20022;-62
2023/12/25 08:24:00;;;;;;;7.07;1.10;;;;;;;;;;5022404;28;20148;-61
2023/12/25 08:26:26;;;;;;;7.90;1.30;;;;;;;;;;5021396;28;20444;-61
2023/12/25 08:28:52;;;;;;;6.83;1.20;;;;;;;;;;5019291;28;20034;-62
2023/12/25 08:31:17;;;;;;;4.97;1.00;;;;;;;;;;5028006;28;20029;-62
2023/12/25 08:33:43;;;;;;;3.60;0.83;;;;;;;;;;5021597;28;20475;-62
2023/12/25 08:36:08;;;;;;;6.50;1.07;;;;;;;;;;5016470;28;20026;-63
2023/12/25 08:38:35;;;;;;;8.67;1.50;;;;;;;;;;5016204;28;20035;-62
2023/12/25 08:41:00;;;;;;;6.10;1.40;;;;;;;;;;5029377;28;20386;-62
2023/12/25 08:43:26;;;;;;;5.17;1.03;;;;;;;;;;5019514;28;20022;-61
2023/12/25 08:45:51;;;;;;;5.53;1.53;;;;;;;;;;5025900;28;20072;-61
2023/12/25 08:48:16;;;;;;;6.63;2.43;;;;;;;;;;5015276;28;20053;-62
2023/12/25 08:50:41;;;;;;;5.30;0.97;;;;;;;;;;5019476;28;20021;-62
2023/12/25 08:53:08;;;;;;;3.37;0.90;;;;;;;;;;5025377;28;20035;-62
2023/12/25 08:55:33;;;;;;;4.83;1.00;;;;;;;;;;5018197;28;20029;-62
2023/12/25 08:57:59;;;;;;;7.43;1.23;;;;;;;;;;5018461;28;20438;-62
2023/12/25 09:00:24;;;;;;;6.03;1.30;;;;;;;;;;5020682;28;21780;-62
2023/12/25 09:02:49;;;;;;;6.50;1.60;;;;;;;;;;5021424;28;20029;-62
2023/12/25 09:05:15;;;;;;;4.17;1.40;;;;;;;;;;5021174;28;20454;-61
2023/12/25 09:07:40;;;;;;;4.13;1.00;;;;;;;;;;5028064;28;20080;-62
2023/12/25 09:10:06;;;;;;;5.13;1.10;;;;;;;;;;5020285;28;20156;-62
2023/12/25 09:12:32;;;;;;;5.30;1.20;;;;;;;;;;5022614;28;20390;-62
2023/12/25 09:14:57;;;;;;;3.73;1.13;;;;;;;;;;5032098;28;20055;-62
2023/12/25 09:17:22;;;;;;;7.23;1.30;;;;;;;;;;5024034;28;20021;-62
2023/12/25 09:19:47;;;;;;;6.27;1.00;;;;;;;;;;5021250;28;20018;-62
2023/12/25 09:22:13;;;;;;;6.60;1.03;;;;;;;;;;5022073;28;20014;-62
2023/12/25 09:24:38;;;;;;;5.00;0.90;;;;;;;;;;5021972;28;20136;-62
2023/12/25 09:27:04;;;;;;;4.20;1.40;;;;;;;;;;5022536;28;20037;-62
2023/12/25 09:29:29;;;;;;;5.73;1.00;;;;;;;;;;5025014;28;20033;-62
2023/12/25 09:31:54;;;;;;;5.30;1.03;;;;;;;;;;5023582;28;20061;-63
2023/12/25 09:34:22;;;;;;;6.10;1.20;;;;;;;;;;5021332;28;20026;-61
2023/12/25 09:36:48;;;;;;;6.07;1.20;;;;;;;;;;5018503;28;20065;-62
2023/12/25 09:39:13;;;;;;;4.97;1.63;;;;;;;;;;5026208;28;20026;-62
2023/12/25 09:41:39;;;;;;;4.80;0.93;;;;;;;;;;5025051;28;20029;-62
2023/12/25 09:44:06;;;;;;;7.80;1.20;;;;;;;;;;5021667;28;20300;-63
2023/12/25 09:46:31;;;;;;;2.47;0.87;;;;;;;;;;5017271;28;20055;-62
2023/12/25 09:48:57;;;;;;;9.80;1.17;;;;;;;;;;5015844;28;20026;-62
2023/12/25 09:51:24;;;;;;;6.43;1.37;;;;;;;;;;5021772;28;20104;-62
2023/12/25 09:53:50;;;;;;;4.53;1.30;;;;;;;;;;5018722;28;20494;-61
2023/12/25 09:56:16;;;;;;;6.13;1.03;;;;;;;;;;5019024;28;20033;-62
2023/12/25 09:58:43;;;;;;;5.07;1.20;;;;;;;;;;5015820;28;20111;-62
2023/12/25 10:01:09;;;;;;;4.93;1.13;;;;;;;;;;5025477;28;20029;-62
2023/12/25 10:03:34;;;;;;;9.67;1.40;;;;;;;;;;5018797;28;20044;-62
2023/12/25 10:06:00;;;;;;;6.27;1.20;;;;;;;;;;5017032;28;20544;-62
2023/12/25 10:08:27;;;;;;;7.23;1.13;;;;;;;;;;5016732;28;20057;-62
2023/12/25 10:10:55;;;;;;;7.40;1.43;;;;;;;;;;5024396;28;20362;-62
2023/12/25 10:13:22;;;;;;;5.83;1.20;;;;;;;;;;5023473;28;20025;-62
2023/12/25 10:15:47;;;;;;;2.70;0.80;;;;;;;;;;5020021;28;20021;-62
2023/12/25 10:18:12;;;;;;;3.67;1.13;;;;;;;;;;5019355;28;20390;-62
2023/12/25 10:20:38;;;;;;;5.83;1.30;;;;;;;;;;5024674;28;20026;-62
2023/12/25 10:23:11;;;;;;;8.83;2.03;;;;;;;;;;5024735;28;20065;-62
2023/12/25 10:25:42;;;;;;;6.67;1.40;;;;;;;;;;5022131;28;20112;-62
2023/12/25 10:28:10;;;;;;;13.82;1.30;;;;;;;;;;5021973;28;20080;-62
2023/12/25 10:30:36;;;;;;;5.83;1.37;;;;;;;;;;5024390;28;20034;-61
2023/12/25 10:33:12;;;;;;;5.07;1.10;;;;;;;;;;5025252;28;20024;-62
2023/12/25 10:35:38;;;;;;;5.70;1.43;;;;;;;;;;5026332;28;20100;-62
2023/12/25 10:38:03;;;;;;;7.00;1.57;;;;;;;;;;5028452;28;20072;-61
2023/12/25 10:40:31;;;;;;;5.97;1.20;;;;;;;;;;5024756;28;20021;-61
2023/12/25 10:42:57;;;;;;;7.47;1.30;;;;;;;;;;5026475;28;20872;-62
2023/12/25 10:45:23;;;;;;;4.37;1.03;;;;;;;;;;5028818;28;20025;-61
2023/12/25 10:47:52;;;;;;;4.63;0.83;;;;;;;;;;5026663;28;20034;-61
2023/12/25 10:50:18;;;;;;;6.70;1.37;;;;;;;;;;5021914;28;20076;-63
2023/12/25 10:52:45;;;;;;;7.27;1.30;;;;;;;;;;5021222;28;20018;-62
2023/12/25 10:55:11;;;;;;;6.97;1.40;;;;;;;;;;5021540;28;20105;-63
2023/12/25 10:57:37;;;;;;;5.17;1.30;;;;;;;;;;5023294;28;20017;-63
2023/12/25 11:00:04;;;;;;;7.57;1.60;;;;;;;;;;5025300;28;20025;-63
2023/12/25 11:02:32;;;;;;;6.73;1.30;;;;;;;;;;5026237;28;20022;-63
2023/12/25 11:04:58;;;;;;;5.57;1.60;;;;;;;;;;5025046;28;20100;-62
2023/12/25 11:07:23;;;;;;;6.30;1.20;;;;;;;;;;5015784;28;20140;-62
2023/12/25 11:09:49;;;;;;;6.10;1.23;;;;;;;;;;5020060;28;20010;-62
2023/12/25 11:12:15;;;;;;;5.17;1.10;;;;;;;;;;5024507;28;20022;-62
2023/12/25 11:14:40;;;;;;;6.40;1.17;;;;;;;;;;5023054;28;20014;-62
2023/12/25 11:17:05;;;;;;;9.00;1.77;;;;;;;;;;5022625;28;20466;-62
2023/12/25 11:19:31;;;;;;;7.03;1.53;;;;;;;;;;5027206;28;20478;-62
2023/12/25 11:21:56;;;;;;;8.67;1.70;;;;;;;;;;5029105;28;20021;-62
2023/12/25 11:24:26;;;;;;;11.97;2.17;;;;;;;;;;5024225;28;20040;-62
2023/12/25 11:27:01;;;;;;;5.00;1.27;;;;;;;;;;5000812;28;20045;-62
2023/12/25 11:29:29;;;;;;;6.67;1.30;;;;;;;;;;5029003;28;20618;-63
2023/12/25 11:31:54;;;;;;;9.20;1.93;;;;;;;;;;5024866;28;20017;-62
2023/12/25 11:34:21;;;;;;;7.97;1.50;;;;;;;;;;5024311;28;20498;-62
2023/12/25 11:36:48;;;;;;;5.63;1.47;;;;;;;;;;5024712;28;20025;-62
2023/12/25 11:39:13;;;;;;;7.03;1.30;;;;;;;;;;5023052;28;20025;-63
2023/12/25 11:41:38;;;;;;;7.33;1.27;;;;;;;;;;5024880;28;20087;-61
2023/12/25 11:44:06;;;;;;;9.10;1.90;;;;;;;;;;5024708;28;20511;-62
2023/12/25 11:46:34;;;;;;;5.07;1.10;;;;;;;;;;5025854;28;20029;-62
2023/12/25 11:49:00;;;;;;;6.40;1.40;;;;;;;;;;5025634;28;20021;-63
2023/12/25 11:51:26;;;;;;;7.33;1.47;;;;;;;;;;5022335;28;20022;-62
2023/12/25 11:53:53;;;;;;;7.33;1.20;;;;;;;;;;5021736;28;20094;-63
2023/12/25 11:56:18;;;;;;;7.93;1.23;;;;;;;;;;5026684;28;20032;-62
2023/12/25 11:58:44;;;;;;;6.67;1.33;;;;;;;;;;5027335;28;20386;-63
2023/12/25 12:01:13;;;;;;;6.27;1.50;;;;;;;;;;5020455;28;20430;-63
2023/12/25 12:03:40;;;;;;;8.53;1.57;;;;;;;;;;5019037;28;20033;-63
2023/12/25 12:06:06;;;;;;;6.83;1.30;;;;;;;;;;5021511;28;20026;-62
2023/12/25 12:08:31;;;;;;;6.40;1.50;;;;;;;;;;5025282;28;20494;-63
2023/12/25 12:10:59;;;;;;;9.10;1.43;;;;;;;;;;5015383;28;20013;-62
2023/12/25 12:13:24;;;;;;;11.33;1.30;;;;;;;;;;5013705;28;20392;-63
2023/12/25 12:15:50;;;;;;;11.47;1.73;;;;;;;;;;5020130;28;20022;-62
2023/12/25 12:18:16;;;;;;;10.27;1.43;;;;;;;;;;5023619;28;20034;-62
2023/12/25 12:20:41;;;;;;;10.67;1.40;;;;;;;;;;5016053;28;20029;-62
2023/12/25 12:23:13;;;;;;;8.17;1.47;;;;;;;;;;5017430;28;20477;-62
2023/12/25 12:25:38;;;;;;;;;;;;;;;;;;5018558;28;20073;-63
2023/12/25 12:28:03;;;;;;;6.22;1.27;;;;;;;;;;5029359;28;19916;-62
2023/12/25 12:30:30;;;;;;;6.47;1.20;;;;;;;;;;5022635;28;20425;-63
2023/12/25 12:32:55;;;;;;;7.90;1.40;;;;;;;;;;5020052;28;20022;-63
2023/12/25 12:35:20;;;;;;;8.70;2.07;;;;;;;;;;5022664;28;20021;-62
2023/12/25 12:37:45;;;;;;;5.43;1.13;;;;;;;;;;5023092;28;20440;-62
2023/12/25 12:40:11;;;;;;;8.03;1.60;;;;;;;;;;5025588;28;20059;-63
2023/12/25 12:42:39;;;;;;;6.07;1.50;;;;;;;;;;5020294;28;20033;-62
2023/12/25 12:45:05;;;;;;;5.23;1.20;;;;;;;;;;5022741;28;20036;-62
2023/12/25 12:47:31;;;;;;;7.60;1.40;;;;;;;;;;5026184;28;20013;-63
2023/12/25 12:49:57;;;;;;;7.37;1.77;;;;;;;;;;5022145;28;20017;-63
2023/12/25 12:52:23;;;;;;;7.80;1.60;;;;;;;;;;5025670;28;20025;-63
2023/12/25 12:54:48;;;;;;;4.90;1.63;;;;;;;;;;5026487;28;20108;-63
2023/12/25 12:57:14;;;;;;;8.07;1.40;;;;;;;;;;5023657;28;20482;-63
2023/12/25 12:59:40;;;;;;;7.07;1.57;;;;;;;;;;5022638;28;20029;-63
2023/12/25 13:02:05;;;;;;;7.00;1.80;;;;;;;;;;5019687;28;20033;-63
2023/12/25 13:04:31;;;;;;;8.67;1.90;;;;;;;;;;5025939;28;20118;-63
2023/12/25 13:06:57;;;;;;;11.47;1.80;;;;;;;;;;5023000;28;20490;-63
2023/12/25 13:09:22;;;;;;;9.77;2.40;;;;;;;;;;5022506;28;20037;-63
2023/12/25 13:11:48;;;;;;;9.20;2.20;;;;;;;;;;5022714;28;20398;-63
2023/12/25 13:14:13;;;;;;;8.27;1.53;;;;;;;;;;5017991;28;20017;-63
2023/12/25 13:16:39;;;;;;;5.03;1.70;;;;;;;;;;5022399;28;20033;-62
2023/12/25 13:19:04;;;;;;;11.20;1.90;;;;;;;;;;5022951;28;20747;-63
2023/12/25 13:21:29;;;;;;;8.43;1.80;;;;;;;;;;5014815;28;20025;-63
2023/12/25 13:23:54;;;;;;;9.07;2.00;;;;;;;;;;5013415;28;20459;-63
2023/12/25 13:26:20;;;;;;;9.13;2.33;;;;;;;;;;5023199;28;20046;-63
2023/12/25 13:28:45;;;;;;;8.47;2.27;;;;;;;;;;5025270;28;20052;-63
2023/12/25 13:31:10;;;;;;;7.30;2.00;;;;;;;;;;5027147;28;20032;-63
2023/12/25 13:33:39;;;;;;;11.50;2.20;;;;;;;;;;5016668;28;20459;-62
2023/12/25 13:36:05;;;;;;;10.63;1.87;;;;;;;;;;5024036;28;20107;-62
2023/12/25 13:38:30;;;;;;;8.33;1.73;;;;;;;;;;5024570;28;20090;-63
2023/12/25 13:40:56;;;;;;;9.80;2.07;;;;;;;;;;5018600;28;20022;-63
2023/12/25 13:43:21;;;;;;;9.13;2.20;;;;;;;;;;5019185;28;20014;-63
2023/12/25 13:45:46;;;;;;;10.20;2.37;;;;;;;;;;5021780;28;20097;-63
2023/12/25 13:48:11;;;;;;;11.70;2.20;;;;;;;;;;5025320;28;20030;-62
2023/12/25 13:50:37;;;;;;;12.73;2.80;;;;;;;;;;5020865;28;20046;-63
2023/12/25 13:53:03;;;;;;;15.80;3.57;;;;;;;;;;5020537;28;20120;-62
2023/12/25 13:55:29;;;;;;;11.97;2.97;;;;;;;;;;5025956;28;20478;-61
2023/12/25 13:57:54;;;;;;;12.33;2.90;;;;;;;;;;5020267;28;20014;-62
2023/12/25 14:00:19;;;;;;;11.97;2.80;;;;;;;;;;5023849;28;20108;-61
2023/12/25 14:02:45;;;;;;;14.40;2.30;;;;;;;;;;5024977;28;20022;-62
2023/12/25 14:05:19;;;;;;;10.60;2.57;;;;;;;;;;5022539;28;20033;-62
2023/12/25 14:07:44;;;;;;;6.87;1.97;;;;;;;;;;5020839;28;20080;-62
2023/12/25 14:10:10;;;;;;;8.33;2.20;;;;;;;;;;5020420;28;20017;-62
2023/12/25 14:12:35;;;;;;;10.80;2.40;;;;;;;;;;5021920;28;20104;-61
2023/12/25 14:15:01;;;;;;;10.00;2.13;;;;;;;;;;5023626;28;20531;-62
2023/12/25 14:17:26;;;;;;;12.00;2.00;;;;;;;;;;5019587;28;20026;-62
2023/12/25 14:19:51;;;;;;;11.47;1.97;;;;;;;;;;5019854;28;20045;-62
2023/12/25 14:22:17;;;;;;;11.73;2.07;;;;;;;;;;5017614;28;20022;-62
2023/12/25 14:24:42;;;;;;;7.00;2.30;;;;;;;;;;5022802;28;20500;-62
2023/12/25 14:27:08;;;;;;;11.23;2.23;;;;;;;;;;5019510;28;20498;-62
2023/12/25 14:29:34;;;;;;;9.40;2.00;;;;;;;;;;5018378;28;20030;-61
2023/12/25 14:31:59;;;;;;;12.47;2.27;;;;;;;;;;5016400;28;20026;-62
2023/12/25 14:34:25;;;;;;;8.87;1.93;;;;;;;;;;5017674;28;20056;-62